sensor_id;sensor_type;location;lat;lon;timestamp;P1;durP1;ratioP1;P2;durP2;ratioP2
60478;SDS011;46321;48.398;11.754;2023-04-03T00:01:00;6.18;;;3.60;;
60478;SDS011;46321;48.398;11.754;2023-04-03T00:03:26;6.75;;;3.80;;
60478;SDS011;46321;48.398;11.754;2023-04-03T00:05:51;5.43;;;3.80;;
60478;SDS011;46321;48.398;11.754;2023-04-03T00:08:16;6.63;;;3.47;;
60478;SDS011;46321;48.398;11.754;2023-04-03T00:10:42;6.40;;;3.63;;
60478;SDS011;46321;48.398;11.754;2023-04-03T00:13:08;6.60;;;3.58;;
60478;SDS011;46321;48.398;11.754;2023-04-03T00:15:34;7.72;;;3.92;;
60478;SDS011;46321;48.398;11.754;2023-04-03T00:18:01;6.47;;;3.80;;
60478;SDS011;46321;48.398;11.754;2023-04-03T00:20:27;5.65;;;3.90;;
60478;SDS011;46321;48.398;11.754;2023-04-03T00:22:52;5.28;;;3.42;;
60478;SDS011;46321;48.398;11.754;2023-04-03T00:25:18;5.75;;;3.17;;
60478;SDS011;46321;48.398;11.754;2023-04-03T00:27:43;6.22;;;3.72;;
60478;SDS011;46321;48.398;11.754;2023-04-03T00:30:10;4.85;;;2.95;;
60478;SDS011;46321;48.398;11.754;2023-04-03T00:32:37;6.95;;;3.35;;
60478;SDS011;46321;48.398;11.754;2023-04-03T00:35:03;5.25;;;3.83;;
60478;SDS011;46321;48.398;11.754;2023-04-03T00:37:28;5.00;;;3.40;;
60478;SDS011;46321;48.398;11.754;2023-04-03T00:39:54;4.78;;;3.40;;
60478;SDS011;46321;48.398;11.754;2023-04-03T00:42:20;4.10;;;3.22;;
60478;SDS011;46321;48.398;11.754;2023-04-03T00:47:11;6.18;;;3.58;;
60478;SDS011;46321;48.398;11.754;2023-04-03T00:49:40;4.50;;;3.20;;
60478;SDS011;46321;48.398;11.754;2023-04-03T00:52:08;4.32;;;3.10;;
60478;SDS011;46321;48.398;11.754;2023-04-03T00:54:38;3.85;;;2.80;;
60478;SDS011;46321;48.398;11.754;2023-04-03T00:57:06;5.00;;;3.25;;
60478;SDS011;46321;48.398;11.754;2023-04-03T00:59:34;4.43;;;3.13;;
60478;SDS011;46321;48.398;11.754;2023-04-03T01:02:03;4.80;;;2.90;;
60478;SDS011;46321;48.398;11.754;2023-04-03T01:06:58;5.20;;;3.33;;
60478;SDS011;46321;48.398;11.754;2023-04-03T01:09:27;5.15;;;3.03;;
60478;SDS011;46321;48.398;11.754;2023-04-03T01:11:54;3.65;;;3.00;;
60478;SDS011;46321;48.398;11.754;2023-04-03T01:14:19;4.05;;;2.75;;
60478;SDS011;46321;48.398;11.754;2023-04-03T01:16:53;4.70;;;3.10;;
60478;SDS011;46321;48.398;11.754;2023-04-03T01:19:19;4.57;;;2.95;;
60478;SDS011;46321;48.398;11.754;2023-04-03T01:21:56;4.57;;;2.72;;
60478;SDS011;46321;48.398;11.754;2023-04-03T01:24:32;4.40;;;2.90;;
60478;SDS011;46321;48.398;11.754;2023-04-03T01:27:04;4.20;;;2.80;;
60478;SDS011;46321;48.398;11.754;2023-04-03T01:29:30;3.72;;;2.50;;
60478;SDS011;46321;48.398;11.754;2023-04-03T01:31:57;4.05;;;3.03;;
60478;SDS011;46321;48.398;11.754;2023-04-03T01:34:23;3.90;;;2.90;;
60478;SDS011;46321;48.398;11.754;2023-04-03T01:36:49;3.50;;;2.75;;
60478;SDS011;46321;48.398;11.754;2023-04-03T01:39:16;5.95;;;2.72;;
60478;SDS011;46321;48.398;11.754;2023-04-03T01:41:41;4.85;;;3.00;;
60478;SDS011;46321;48.398;11.754;2023-04-03T01:44:06;7.30;;;2.70;;
60478;SDS011;46321;48.398;11.754;2023-04-03T01:46:32;5.70;;;2.75;;
60478;SDS011;46321;48.398;11.754;2023-04-03T01:48:57;7.20;;;3.50;;
60478;SDS011;46321;48.398;11.754;2023-04-03T01:51:22;6.03;;;3.00;;
60478;SDS011;46321;48.398;11.754;2023-04-03T01:53:48;4.18;;;2.92;;
60478;SDS011;46321;48.398;11.754;2023-04-03T01:56:13;4.82;;;2.80;;
60478;SDS011;46321;48.398;11.754;2023-04-03T01:58:38;3.15;;;2.35;;
60478;SDS011;46321;48.398;11.754;2023-04-03T02:01:04;4.10;;;2.72;;
60478;SDS011;46321;48.398;11.754;2023-04-03T02:03:30;4.68;;;2.75;;
60478;SDS011;46321;48.398;11.754;2023-04-03T02:05:55;4.72;;;2.67;;
60478;SDS011;46321;48.398;11.754;2023-04-03T02:08:21;5.75;;;3.30;;
60478;SDS011;46321;48.398;11.754;2023-04-03T02:10:47;4.30;;;2.90;;
60478;SDS011;46321;48.398;11.754;2023-04-03T02:13:13;3.00;;;2.42;;
60478;SDS011;46321;48.398;11.754;2023-04-03T02:15:38;8.00;;;3.08;;
60478;SDS011;46321;48.398;11.754;2023-04-03T02:18:04;4.47;;;2.92;;
60478;SDS011;46321;48.398;11.754;2023-04-03T02:20:30;5.90;;;3.03;;
60478;SDS011;46321;48.398;11.754;2023-04-03T02:22:55;5.20;;;3.13;;
60478;SDS011;46321;48.398;11.754;2023-04-03T02:25:20;4.65;;;3.13;;
60478;SDS011;46321;48.398;11.754;2023-04-03T02:27:46;5.70;;;2.90;;
60478;SDS011;46321;48.398;11.754;2023-04-03T02:30:11;4.20;;;2.90;;
60478;SDS011;46321;48.398;11.754;2023-04-03T02:32:37;3.58;;;2.50;;
60478;SDS011;46321;48.398;11.754;2023-04-03T02:35:03;5.00;;;2.92;;
60478;SDS011;46321;48.398;11.754;2023-04-03T02:37:28;6.78;;;3.53;;
60478;SDS011;46321;48.398;11.754;2023-04-03T02:39:53;4.32;;;2.90;;
60478;SDS011;46321;48.398;11.754;2023-04-03T02:42:19;5.80;;;2.83;;
60478;SDS011;46321;48.398;11.754;2023-04-03T02:44:44;5.47;;;3.20;;
60478;SDS011;46321;48.398;11.754;2023-04-03T02:47:09;5.18;;;3.03;;
60478;SDS011;46321;48.398;11.754;2023-04-03T02:49:35;5.50;;;3.17;;
60478;SDS011;46321;48.398;11.754;2023-04-03T02:52:00;4.88;;;3.40;;
60478;SDS011;46321;48.398;11.754;2023-04-03T02:54:25;4.28;;;2.97;;
60478;SDS011;46321;48.398;11.754;2023-04-03T02:56:54;5.68;;;3.53;;
60478;SDS011;46321;48.398;11.754;2023-04-03T02:59:19;5.00;;;3.17;;
60478;SDS011;46321;48.398;11.754;2023-04-03T03:01:45;5.90;;;3.35;;
60478;SDS011;46321;48.398;11.754;2023-04-03T03:04:10;4.97;;;3.50;;
60478;SDS011;46321;48.398;11.754;2023-04-03T03:06:36;6.65;;;3.28;;
60478;SDS011;46321;48.398;11.754;2023-04-03T03:09:01;4.97;;;3.08;;
60478;SDS011;46321;48.398;11.754;2023-04-03T03:11:26;4.95;;;3.17;;
60478;SDS011;46321;48.398;11.754;2023-04-03T03:13:52;4.95;;;3.42;;
60478;SDS011;46321;48.398;11.754;2023-04-03T03:16:17;5.47;;;3.40;;
60478;SDS011;46321;48.398;11.754;2023-04-03T03:18:42;5.63;;;3.08;;
60478;SDS011;46321;48.398;11.754;2023-04-03T03:21:08;6.28;;;3.83;;
60478;SDS011;46321;48.398;11.754;2023-04-03T03:23:35;4.35;;;3.08;;
60478;SDS011;46321;48.398;11.754;2023-04-03T03:26:01;4.85;;;3.40;;
60478;SDS011;46321;48.398;11.754;2023-04-03T03:28:29;6.50;;;3.53;;
60478;SDS011;46321;48.398;11.754;2023-04-03T03:30:56;5.35;;;3.33;;
60478;SDS011;46321;48.398;11.754;2023-04-03T03:33:21;5.07;;;3.28;;
60478;SDS011;46321;48.398;11.754;2023-04-03T03:35:47;4.78;;;3.15;;
60478;SDS011;46321;48.398;11.754;2023-04-03T03:38:12;6.32;;;3.58;;
60478;SDS011;46321;48.398;11.754;2023-04-03T03:40:37;6.22;;;3.10;;
60478;SDS011;46321;48.398;11.754;2023-04-03T03:43:02;4.78;;;3.15;;
60478;SDS011;46321;48.398;11.754;2023-04-03T03:45:28;7.07;;;3.80;;
60478;SDS011;46321;48.398;11.754;2023-04-03T03:47:54;5.50;;;3.72;;
60478;SDS011;46321;48.398;11.754;2023-04-03T03:50:20;6.65;;;3.60;;
60478;SDS011;46321;48.398;11.754;2023-04-03T03:52:45;6.97;;;3.42;;
60478;SDS011;46321;48.398;11.754;2023-04-03T03:55:11;4.78;;;3.17;;
60478;SDS011;46321;48.398;11.754;2023-04-03T03:57:36;6.00;;;3.75;;
60478;SDS011;46321;48.398;11.754;2023-04-03T04:00:02;5.68;;;3.25;;
60478;SDS011;46321;48.398;11.754;2023-04-03T04:02:28;6.47;;;3.53;;
60478;SDS011;46321;48.398;11.754;2023-04-03T04:04:53;5.38;;;3.97;;
60478;SDS011;46321;48.398;11.754;2023-04-03T04:07:18;5.95;;;3.67;;
60478;SDS011;46321;48.398;11.754;2023-04-03T04:09:44;6.18;;;3.33;;
60478;SDS011;46321;48.398;11.754;2023-04-03T04:12:09;8.75;;;3.70;;
60478;SDS011;46321;48.398;11.754;2023-04-03T04:14:34;8.07;;;3.60;;
60478;SDS011;46321;48.398;11.754;2023-04-03T04:17:00;6.05;;;4.00;;
60478;SDS011;46321;48.398;11.754;2023-04-03T04:19:27;5.65;;;3.65;;
60478;SDS011;46321;48.398;11.754;2023-04-03T04:22:02;5.43;;;3.42;;
60478;SDS011;46321;48.398;11.754;2023-04-03T04:24:27;6.63;;;4.00;;
60478;SDS011;46321;48.398;11.754;2023-04-03T04:26:52;5.53;;;3.35;;
60478;SDS011;46321;48.398;11.754;2023-04-03T04:29:17;7.07;;;3.50;;
60478;SDS011;46321;48.398;11.754;2023-04-03T04:31:43;6.55;;;3.88;;
60478;SDS011;46321;48.398;11.754;2023-04-03T04:34:08;5.43;;;3.17;;
60478;SDS011;46321;48.398;11.754;2023-04-03T04:36:33;5.97;;;3.80;;
60478;SDS011;46321;48.398;11.754;2023-04-03T04:38:58;6.40;;;4.03;;
60478;SDS011;46321;48.398;11.754;2023-04-03T04:41:25;5.50;;;3.90;;
60478;SDS011;46321;48.398;11.754;2023-04-03T04:43:51;6.10;;;3.78;;
60478;SDS011;46321;48.398;11.754;2023-04-03T04:46:17;7.05;;;3.92;;
60478;SDS011;46321;48.398;11.754;2023-04-03T04:48:43;6.97;;;3.55;;
60478;SDS011;46321;48.398;11.754;2023-04-03T04:51:09;6.95;;;3.92;;
60478;SDS011;46321;48.398;11.754;2023-04-03T04:53:35;6.70;;;4.00;;
60478;SDS011;46321;48.398;11.754;2023-04-03T04:56:00;6.47;;;3.90;;
60478;SDS011;46321;48.398;11.754;2023-04-03T04:58:26;7.80;;;4.65;;
60478;SDS011;46321;48.398;11.754;2023-04-03T05:01:04;6.30;;;4.03;;
60478;SDS011;46321;48.398;11.754;2023-04-03T05:03:32;7.57;;;3.67;;
60478;SDS011;46321;48.398;11.754;2023-04-03T05:05:57;5.88;;;3.63;;
60478;SDS011;46321;48.398;11.754;2023-04-03T05:08:23;7.63;;;4.28;;
60478;SDS011;46321;48.398;11.754;2023-04-03T05:10:49;7.82;;;3.95;;
60478;SDS011;46321;48.398;11.754;2023-04-03T05:13:14;7.00;;;3.88;;
60478;SDS011;46321;48.398;11.754;2023-04-03T05:15:40;7.15;;;3.92;;
60478;SDS011;46321;48.398;11.754;2023-04-03T05:18:05;7.30;;;3.90;;
60478;SDS011;46321;48.398;11.754;2023-04-03T05:20:31;8.00;;;3.92;;
60478;SDS011;46321;48.398;11.754;2023-04-03T05:22:57;8.10;;;3.97;;
60478;SDS011;46321;48.398;11.754;2023-04-03T05:25:22;5.85;;;3.60;;
60478;SDS011;46321;48.398;11.754;2023-04-03T05:27:48;6.22;;;4.07;;
60478;SDS011;46321;48.398;11.754;2023-04-03T05:30:13;8.32;;;4.00;;
60478;SDS011;46321;48.398;11.754;2023-04-03T05:32:39;7.05;;;4.30;;
60478;SDS011;46321;48.398;11.754;2023-04-03T05:35:06;6.82;;;3.83;;
60478;SDS011;46321;48.398;11.754;2023-04-03T05:37:32;8.55;;;4.60;;
60478;SDS011;46321;48.398;11.754;2023-04-03T05:39:58;6.70;;;4.35;;
60478;SDS011;46321;48.398;11.754;2023-04-03T05:42:23;7.25;;;4.45;;
60478;SDS011;46321;48.398;11.754;2023-04-03T05:44:49;11.07;;;4.38;;
60478;SDS011;46321;48.398;11.754;2023-04-03T05:47:15;7.93;;;4.13;;
60478;SDS011;46321;48.398;11.754;2023-04-03T05:49:40;7.82;;;4.50;;
60478;SDS011;46321;48.398;11.754;2023-04-03T05:52:10;8.07;;;4.63;;
60478;SDS011;46321;48.398;11.754;2023-04-03T05:54:45;7.13;;;4.47;;
60478;SDS011;46321;48.398;11.754;2023-04-03T05:57:12;9.23;;;4.50;;
60478;SDS011;46321;48.398;11.754;2023-04-03T05:59:38;8.00;;;4.38;;
60478;SDS011;46321;48.398;11.754;2023-04-03T06:02:03;8.68;;;4.45;;
60478;SDS011;46321;48.398;11.754;2023-04-03T06:04:28;7.60;;;4.55;;
60478;SDS011;46321;48.398;11.754;2023-04-03T06:06:55;9.35;;;4.40;;
60478;SDS011;46321;48.398;11.754;2023-04-03T06:09:23;10.13;;;4.72;;
60478;SDS011;46321;48.398;11.754;2023-04-03T06:11:50;8.80;;;4.93;;
60478;SDS011;46321;48.398;11.754;2023-04-03T06:14:16;7.70;;;4.53;;
60478;SDS011;46321;48.398;11.754;2023-04-03T06:16:42;8.48;;;4.88;;
60478;SDS011;46321;48.398;11.754;2023-04-03T06:19:08;7.00;;;4.53;;
60478;SDS011;46321;48.398;11.754;2023-04-03T06:21:34;7.95;;;4.53;;
60478;SDS011;46321;48.398;11.754;2023-04-03T06:24:00;7.40;;;4.45;;
60478;SDS011;46321;48.398;11.754;2023-04-03T06:26:27;7.35;;;4.88;;
60478;SDS011;46321;48.398;11.754;2023-04-03T06:28:52;8.00;;;4.47;;
60478;SDS011;46321;48.398;11.754;2023-04-03T06:31:17;8.82;;;5.35;;
60478;SDS011;46321;48.398;11.754;2023-04-03T06:33:43;10.88;;;4.85;;
60478;SDS011;46321;48.398;11.754;2023-04-03T06:36:09;8.55;;;4.90;;
60478;SDS011;46321;48.398;11.754;2023-04-03T06:38:35;8.00;;;4.97;;
60478;SDS011;46321;48.398;11.754;2023-04-03T06:41:00;14.50;;;5.32;;
60478;SDS011;46321;48.398;11.754;2023-04-03T06:43:25;9.35;;;5.15;;
60478;SDS011;46321;48.398;11.754;2023-04-03T06:45:51;10.07;;;5.28;;
60478;SDS011;46321;48.398;11.754;2023-04-03T06:48:16;11.82;;;5.28;;
60478;SDS011;46321;48.398;11.754;2023-04-03T06:50:42;10.82;;;5.90;;
60478;SDS011;46321;48.398;11.754;2023-04-03T06:53:07;10.70;;;5.75;;
60478;SDS011;46321;48.398;11.754;2023-04-03T06:55:33;10.00;;;5.40;;
60478;SDS011;46321;48.398;11.754;2023-04-03T06:57:59;9.18;;;5.20;;
60478;SDS011;46321;48.398;11.754;2023-04-03T07:00:25;22.77;;;19.02;;
60478;SDS011;46321;48.398;11.754;2023-04-03T07:02:51;10.98;;;6.43;;
60478;SDS011;46321;48.398;11.754;2023-04-03T07:05:16;12.07;;;6.63;;
60478;SDS011;46321;48.398;11.754;2023-04-03T07:07:42;9.35;;;5.45;;
60478;SDS011;46321;48.398;11.754;2023-04-03T07:10:07;8.90;;;4.82;;
60478;SDS011;46321;48.398;11.754;2023-04-03T07:12:33;7.88;;;4.93;;
60478;SDS011;46321;48.398;11.754;2023-04-03T07:14:59;8.90;;;6.07;;
60478;SDS011;46321;48.398;11.754;2023-04-03T07:17:24;7.45;;;5.28;;
60478;SDS011;46321;48.398;11.754;2023-04-03T07:19:50;6.28;;;4.53;;
60478;SDS011;46321;48.398;11.754;2023-04-03T07:22:16;8.80;;;5.45;;
60478;SDS011;46321;48.398;11.754;2023-04-03T07:24:41;7.05;;;4.47;;
60478;SDS011;46321;48.398;11.754;2023-04-03T07:27:07;7.25;;;4.57;;
60478;SDS011;46321;48.398;11.754;2023-04-03T07:29:33;8.40;;;4.82;;
60478;SDS011;46321;48.398;11.754;2023-04-03T07:31:59;9.10;;;5.55;;
60478;SDS011;46321;48.398;11.754;2023-04-03T07:34:25;9.70;;;5.10;;
60478;SDS011;46321;48.398;11.754;2023-04-03T07:36:50;6.25;;;4.28;;
60478;SDS011;46321;48.398;11.754;2023-04-03T07:39:16;10.23;;;5.28;;
60478;SDS011;46321;48.398;11.754;2023-04-03T07:41:41;10.55;;;4.95;;
60478;SDS011;46321;48.398;11.754;2023-04-03T07:44:10;9.93;;;5.18;;
60478;SDS011;46321;48.398;11.754;2023-04-03T07:46:36;10.55;;;6.20;;
60478;SDS011;46321;48.398;11.754;2023-04-03T07:49:02;8.60;;;5.03;;
60478;SDS011;46321;48.398;11.754;2023-04-03T07:51:27;8.30;;;4.50;;
60478;SDS011;46321;48.398;11.754;2023-04-03T07:53:54;10.27;;;5.38;;
60478;SDS011;46321;48.398;11.754;2023-04-03T07:56:19;8.52;;;4.97;;
60478;SDS011;46321;48.398;11.754;2023-04-03T07:58:45;7.07;;;5.05;;
60478;SDS011;46321;48.398;11.754;2023-04-03T08:01:11;7.55;;;4.80;;
60478;SDS011;46321;48.398;11.754;2023-04-03T08:03:36;7.28;;;5.55;;
60478;SDS011;46321;48.398;11.754;2023-04-03T08:06:03;8.52;;;5.45;;
60478;SDS011;46321;48.398;11.754;2023-04-03T08:08:30;9.90;;;5.63;;
60478;SDS011;46321;48.398;11.754;2023-04-03T08:10:57;9.00;;;5.68;;
60478;SDS011;46321;48.398;11.754;2023-04-03T08:13:23;9.73;;;5.57;;
60478;SDS011;46321;48.398;11.754;2023-04-03T08:15:49;11.25;;;6.95;;
60478;SDS011;46321;48.398;11.754;2023-04-03T08:18:15;8.27;;;5.32;;
60478;SDS011;46321;48.398;11.754;2023-04-03T08:20:41;9.68;;;5.47;;
60478;SDS011;46321;48.398;11.754;2023-04-03T08:23:08;10.05;;;6.65;;
60478;SDS011;46321;48.398;11.754;2023-04-03T08:25:34;10.32;;;5.88;;
60478;SDS011;46321;48.398;11.754;2023-04-03T08:28:03;9.75;;;5.65;;
60478;SDS011;46321;48.398;11.754;2023-04-03T08:30:28;8.20;;;5.60;;
60478;SDS011;46321;48.398;11.754;2023-04-03T08:32:53;10.07;;;6.38;;
60478;SDS011;46321;48.398;11.754;2023-04-03T08:35:19;10.68;;;5.45;;
60478;SDS011;46321;48.398;11.754;2023-04-03T08:37:45;9.60;;;6.05;;
60478;SDS011;46321;48.398;11.754;2023-04-03T08:40:13;8.88;;;4.93;;
60478;SDS011;46321;48.398;11.754;2023-04-03T08:45:30;9.02;;;5.60;;
60478;SDS011;46321;48.398;11.754;2023-04-03T08:48:27;19.65;;;9.30;;
60478;SDS011;46321;48.398;11.754;2023-04-03T08:50:57;11.23;;;5.53;;
60478;SDS011;46321;48.398;11.754;2023-04-03T08:53:26;10.30;;;5.20;;
60478;SDS011;46321;48.398;11.754;2023-04-03T08:55:57;8.45;;;5.63;;
60478;SDS011;46321;48.398;11.754;2023-04-03T08:58:58;7.97;;;4.50;;
60478;SDS011;46321;48.398;11.754;2023-04-03T09:01:33;8.88;;;4.47;;
60478;SDS011;46321;48.398;11.754;2023-04-03T09:04:01;6.15;;;4.00;;
60478;SDS011;46321;48.398;11.754;2023-04-03T09:06:29;7.00;;;4.50;;
60478;SDS011;46321;48.398;11.754;2023-04-03T09:11:26;6.10;;;3.83;;
60478;SDS011;46321;48.398;11.754;2023-04-03T09:16:54;5.80;;;3.92;;
60478;SDS011;46321;48.398;11.754;2023-04-03T09:22:17;6.00;;;3.42;;
60478;SDS011;46321;48.398;11.754;2023-04-03T09:24:47;6.30;;;3.70;;
60478;SDS011;46321;48.398;11.754;2023-04-03T09:27:18;5.82;;;2.95;;
60478;SDS011;46321;48.398;11.754;2023-04-03T09:29:43;4.30;;;2.72;;
60478;SDS011;46321;48.398;11.754;2023-04-03T09:32:25;6.90;;;3.08;;
60478;SDS011;46321;48.398;11.754;2023-04-03T09:35:10;4.50;;;2.92;;
60478;SDS011;46321;48.398;11.754;2023-04-03T09:37:48;5.70;;;2.75;;
60478;SDS011;46321;48.398;11.754;2023-04-03T09:42:51;3.50;;;2.35;;
60478;SDS011;46321;48.398;11.754;2023-04-03T09:45:28;4.60;;;2.75;;
60478;SDS011;46321;48.398;11.754;2023-04-03T09:48:20;3.15;;;2.38;;
60478;SDS011;46321;48.398;11.754;2023-04-03T09:53:26;3.60;;;2.40;;
60478;SDS011;46321;48.398;11.754;2023-04-03T09:55:54;4.47;;;2.60;;
60478;SDS011;46321;48.398;11.754;2023-04-03T09:58:26;4.15;;;2.20;;
60478;SDS011;46321;48.398;11.754;2023-04-03T10:00:58;4.40;;;2.50;;
60478;SDS011;46321;48.398;11.754;2023-04-03T10:05:56;4.70;;;2.72;;
60478;SDS011;46321;48.398;11.754;2023-04-03T10:08:32;3.58;;;2.45;;
60478;SDS011;46321;48.398;11.754;2023-04-03T10:13:31;3.55;;;2.20;;
60478;SDS011;46321;48.398;11.754;2023-04-03T10:24:03;2.58;;;1.80;;
60478;SDS011;46321;48.398;11.754;2023-04-03T10:26:39;2.25;;;1.48;;
60478;SDS011;46321;48.398;11.754;2023-04-03T10:31:51;3.38;;;1.40;;
60478;SDS011;46321;48.398;11.754;2023-04-03T10:34:25;4.57;;;1.45;;
60478;SDS011;46321;48.398;11.754;2023-04-03T10:39:55;2.35;;;1.35;;
60478;SDS011;46321;48.398;11.754;2023-04-03T10:51:34;4.97;;;2.13;;
60478;SDS011;46321;48.398;11.754;2023-04-03T10:53:52;6.13;;;2.35;;
60478;SDS011;46321;48.398;11.754;2023-04-03T10:56:42;2.90;;;2.00;;
60478;SDS011;46321;48.398;11.754;2023-04-03T11:02:14;4.18;;;2.00;;
60478;SDS011;46321;48.398;11.754;2023-04-03T11:05:15;2.78;;;1.60;;
60478;SDS011;46321;48.398;11.754;2023-04-03T11:07:47;2.73;;;1.63;;
60478;SDS011;46321;48.398;11.754;2023-04-03T11:13:10;3.45;;;1.90;;
60478;SDS011;46321;48.398;11.754;2023-04-03T11:15:38;2.38;;;1.50;;
60478;SDS011;46321;48.398;11.754;2023-04-03T11:18:05;3.00;;;1.52;;
60478;SDS011;46321;48.398;11.754;2023-04-03T11:20:34;3.22;;;1.80;;
60478;SDS011;46321;48.398;11.754;2023-04-03T11:23:36;2.05;;;1.48;;
60478;SDS011;46321;48.398;11.754;2023-04-03T11:26:02;3.38;;;1.65;;
60478;SDS011;46321;48.398;11.754;2023-04-03T11:28:33;3.15;;;1.83;;
60478;SDS011;46321;48.398;11.754;2023-04-03T11:31:07;2.88;;;1.70;;
60478;SDS011;46321;48.398;11.754;2023-04-03T11:33:50;2.30;;;1.60;;
60478;SDS011;46321;48.398;11.754;2023-04-03T11:36:42;1.95;;;1.50;;
60478;SDS011;46321;48.398;11.754;2023-04-03T11:42:16;3.88;;;1.80;;
60478;SDS011;46321;48.398;11.754;2023-04-03T11:44:48;5.22;;;1.80;;
60478;SDS011;46321;48.398;11.754;2023-04-03T11:47:43;1.77;;;1.52;;
60478;SDS011;46321;48.398;11.754;2023-04-03T12:05:49;2.75;;;1.73;;
60478;SDS011;46321;48.398;11.754;2023-04-03T12:13:40;3.90;;;1.92;;
60478;SDS011;46321;48.398;11.754;2023-04-03T12:16:06;3.67;;;1.70;;
60478;SDS011;46321;48.398;11.754;2023-04-03T12:21:09;3.33;;;1.95;;
60478;SDS011;46321;48.398;11.754;2023-04-03T12:23:36;2.30;;;1.58;;
60478;SDS011;46321;48.398;11.754;2023-04-03T12:26:21;2.05;;;1.40;;
60478;SDS011;46321;48.398;11.754;2023-04-03T12:28:51;6.18;;;1.70;;
60478;SDS011;46321;48.398;11.754;2023-04-03T12:31:18;2.92;;;1.58;;
60478;SDS011;46321;48.398;11.754;2023-04-03T12:36:29;1.90;;;1.50;;
60478;SDS011;46321;48.398;11.754;2023-04-03T12:39:06;6.00;;;1.75;;
60478;SDS011;46321;48.398;11.754;2023-04-03T12:41:51;2.97;;;1.52;;
60478;SDS011;46321;48.398;11.754;2023-04-03T12:47:32;1.70;;;1.40;;
60478;SDS011;46321;48.398;11.754;2023-04-03T12:50:01;4.93;;;2.45;;
60478;SDS011;46321;48.398;11.754;2023-04-03T12:52:33;3.65;;;2.15;;
60478;SDS011;46321;48.398;11.754;2023-04-03T12:55:03;2.25;;;1.48;;
60478;SDS011;46321;48.398;11.754;2023-04-03T12:57:34;3.65;;;1.60;;
60478;SDS011;46321;48.398;11.754;2023-04-03T13:00:00;1.65;;;1.25;;
60478;SDS011;46321;48.398;11.754;2023-04-03T13:05:20;2.88;;;1.70;;
60478;SDS011;46321;48.398;11.754;2023-04-03T13:07:52;2.15;;;1.55;;
60478;SDS011;46321;48.398;11.754;2023-04-03T13:10:22;2.35;;;1.60;;
60478;SDS011;46321;48.398;11.754;2023-04-03T13:12:52;4.53;;;2.22;;
60478;SDS011;46321;48.398;11.754;2023-04-03T13:15:27;2.30;;;1.55;;
60478;SDS011;46321;48.398;11.754;2023-04-03T13:18:05;2.50;;;1.38;;
60478;SDS011;46321;48.398;11.754;2023-04-03T13:20:46;3.58;;;1.60;;
60478;SDS011;46321;48.398;11.754;2023-04-03T13:23:14;2.25;;;1.50;;
60478;SDS011;46321;48.398;11.754;2023-04-03T13:25:43;3.75;;;1.83;;
60478;SDS011;46321;48.398;11.754;2023-04-03T13:28:11;2.05;;;1.20;;
60478;SDS011;46321;48.398;11.754;2023-04-03T13:30:40;1.52;;;1.08;;
60478;SDS011;46321;48.398;11.754;2023-04-03T13:33:23;2.90;;;1.10;;
60478;SDS011;46321;48.398;11.754;2023-04-03T13:39:37;1.50;;;1.10;;
60478;SDS011;46321;48.398;11.754;2023-04-03T13:41:49;3.08;;;1.55;;
60478;SDS011;46321;48.398;11.754;2023-04-03T13:44:23;1.40;;;1.10;;
60478;SDS011;46321;48.398;11.754;2023-04-03T13:49:41;1.67;;;1.40;;
60478;SDS011;46321;48.398;11.754;2023-04-03T13:54:54;3.43;;;1.30;;
60478;SDS011;46321;48.398;11.754;2023-04-03T13:57:22;3.00;;;1.27;;
60478;SDS011;46321;48.398;11.754;2023-04-03T13:59:48;2.08;;;1.15;;
60478;SDS011;46321;48.398;11.754;2023-04-03T14:02:48;2.58;;;1.45;;
60478;SDS011;46321;48.398;11.754;2023-04-03T14:05:06;3.15;;;1.20;;
60478;SDS011;46321;48.398;11.754;2023-04-03T14:07:33;3.00;;;1.10;;
60478;SDS011;46321;48.398;11.754;2023-04-03T14:09:59;2.35;;;1.10;;
60478;SDS011;46321;48.398;11.754;2023-04-03T14:12:30;2.20;;;1.42;;
60478;SDS011;46321;48.398;11.754;2023-04-03T14:15:02;2.38;;;1.25;;
60478;SDS011;46321;48.398;11.754;2023-04-03T14:17:30;12.45;;;5.85;;
60478;SDS011;46321;48.398;11.754;2023-04-03T14:19:57;4.13;;;1.95;;
60478;SDS011;46321;48.398;11.754;2023-04-03T14:22:25;2.70;;;1.23;;
60478;SDS011;46321;48.398;11.754;2023-04-03T14:24:55;2.95;;;1.15;;
60478;SDS011;46321;48.398;11.754;2023-04-03T14:29:52;2.15;;;1.00;;
60478;SDS011;46321;48.398;11.754;2023-04-03T14:32:20;3.38;;;1.23;;
60478;SDS011;46321;48.398;11.754;2023-04-03T14:34:46;2.15;;;1.30;;
60478;SDS011;46321;48.398;11.754;2023-04-03T14:37:14;2.03;;;1.20;;
60478;SDS011;46321;48.398;11.754;2023-04-03T14:39:44;5.00;;;1.42;;
60478;SDS011;46321;48.398;11.754;2023-04-03T14:42:21;2.63;;;1.40;;
60478;SDS011;46321;48.398;11.754;2023-04-03T14:44:50;5.10;;;1.48;;
60478;SDS011;46321;48.398;11.754;2023-04-03T14:47:18;4.32;;;1.40;;
60478;SDS011;46321;48.398;11.754;2023-04-03T14:49:46;2.70;;;1.40;;
60478;SDS011;46321;48.398;11.754;2023-04-03T14:52:22;1.73;;;1.50;;
60478;SDS011;46321;48.398;11.754;2023-04-03T14:54:53;2.28;;;1.20;;
60478;SDS011;46321;48.398;11.754;2023-04-03T14:57:19;2.28;;;1.30;;
60478;SDS011;46321;48.398;11.754;2023-04-03T14:59:49;2.40;;;1.42;;
60478;SDS011;46321;48.398;11.754;2023-04-03T15:04:51;3.47;;;1.42;;
60478;SDS011;46321;48.398;11.754;2023-04-03T15:07:17;3.63;;;1.40;;
60478;SDS011;46321;48.398;11.754;2023-04-03T15:09:43;3.13;;;1.52;;
60478;SDS011;46321;48.398;11.754;2023-04-03T15:12:09;2.65;;;1.33;;
60478;SDS011;46321;48.398;11.754;2023-04-03T15:14:35;3.05;;;1.55;;
60478;SDS011;46321;48.398;11.754;2023-04-03T15:17:00;1.83;;;1.23;;
60478;SDS011;46321;48.398;11.754;2023-04-03T15:19:25;1.88;;;1.30;;
60478;SDS011;46321;48.398;11.754;2023-04-03T15:21:51;1.85;;;1.40;;
60478;SDS011;46321;48.398;11.754;2023-04-03T15:24:16;3.70;;;1.63;;
60478;SDS011;46321;48.398;11.754;2023-04-03T15:26:41;2.13;;;1.60;;
60478;SDS011;46321;48.398;11.754;2023-04-03T15:29:07;2.83;;;1.20;;
60478;SDS011;46321;48.398;11.754;2023-04-03T15:31:32;3.90;;;1.73;;
60478;SDS011;46321;48.398;11.754;2023-04-03T15:33:57;2.90;;;1.40;;
60478;SDS011;46321;48.398;11.754;2023-04-03T15:36:23;4.47;;;1.58;;
60478;SDS011;46321;48.398;11.754;2023-04-03T15:38:48;3.03;;;1.35;;
60478;SDS011;46321;48.398;11.754;2023-04-03T15:41:13;3.53;;;1.67;;
60478;SDS011;46321;48.398;11.754;2023-04-03T15:43:39;2.10;;;1.42;;
60478;SDS011;46321;48.398;11.754;2023-04-03T15:46:04;4.93;;;1.90;;
60478;SDS011;46321;48.398;11.754;2023-04-03T15:48:30;4.00;;;2.00;;
60478;SDS011;46321;48.398;11.754;2023-04-03T15:50:56;2.50;;;1.77;;
60478;SDS011;46321;48.398;11.754;2023-04-03T15:53:21;3.05;;;1.90;;
60478;SDS011;46321;48.398;11.754;2023-04-03T15:55:47;5.60;;;1.55;;
60478;SDS011;46321;48.398;11.754;2023-04-03T15:58:12;2.38;;;1.55;;
60478;SDS011;46321;48.398;11.754;2023-04-03T16:00:39;2.35;;;1.50;;
60478;SDS011;46321;48.398;11.754;2023-04-03T16:03:07;2.10;;;1.58;;
60478;SDS011;46321;48.398;11.754;2023-04-03T16:05:35;11.98;;;1.55;;
60478;SDS011;46321;48.398;11.754;2023-04-03T16:08:02;1.90;;;1.38;;
60478;SDS011;46321;48.398;11.754;2023-04-03T16:10:28;2.75;;;1.52;;
60478;SDS011;46321;48.398;11.754;2023-04-03T16:12:54;2.47;;;1.65;;
60478;SDS011;46321;48.398;11.754;2023-04-03T16:15:20;2.67;;;1.40;;
60478;SDS011;46321;48.398;11.754;2023-04-03T16:17:45;2.60;;;1.45;;
60478;SDS011;46321;48.398;11.754;2023-04-03T16:20:13;1.83;;;1.25;;
60478;SDS011;46321;48.398;11.754;2023-04-03T16:22:39;2.17;;;1.35;;